New Hampton, NH

8:15 PM EDT on March 30, 2017 (GMT -0400)
| | Change Station
Active Advisory: Winter Storm Watch

Elev -9999 ft 0.00 °N, 0.00 °E | Updated 35 seconds ago

Clear
Clear
°F
Feels Like °F
N
Wind Variable Wind from North
Gusts mph

Today
High -- | Low -- °F
--% Chance of Precip.
Yesterday
High -- | Low -- °F
Precip. -- in
Pressure 30.19 in
Visibility 10.0 miles
Clouds Clear
Dew Point Not available.
Humidity Not available.
Rainfall --
Snow Depth Not available.
6:31 AM 7:11 PM
Waxing Crescent, 11% visible
METAR KLCI 302356Z AUTO 00000KT 10SM CLR 04/M06 A3013 RMK AO2 SLP221 T00391056 10083 20033 53004
Pressure 30.19 in
Visibility 10.0 miles
Clouds Clear
Dew Point Not available.
Humidity Not available.
Rainfall --
Snow Depth Not available.
6:31 AM 7:11 PM
Waxing Crescent, 11% visible
METAR KLCI 302356Z AUTO 00000KT 10SM CLR 04/M06 A3013 RMK AO2 SLP221 T00391056 10083 20033 53004

Get Your Daily Forecast Email!

Thanks for signing up!

Be on the lookout for a verification email in your inbox.

You'll start receiving severe weather alerts in your inbox..

×

10-Day Weather Forecast

Almanac

Astronomy

Mar. 30, 2017 Rise Set
Actual Time
Civil Twilight
Nautical Twilight
Astronomical Twilight
Moon
Length of Visible Light
Length of Day
Tomorrow will be .
, % of the Moon is Illuminated

Today's Extremes

State Highs State Lows

Community

WunderPhotos

Upload Photos

1,962,540 photos uploaded!

WunderBlog® & News

Nearby

Air Quality

  Air Quality AQ Index Pollutant
Not available.

Snow Depth

Station Depth Elevation

Earthquake Activity

City Distance Mag. Time & Date
Minimum magnitude displayed is 2.5.

Earthquake Activity

City Distance Mag. Time & Date
Minimum magnitude displayed is 2.5.

Coastal Water Temperatures

Place Temperature

Stations

Nearby Weather Stations

Station Location Temp. Windchill Dew Point Humidity Wind Precip. Elev Updated Type
                   

Watches & Warnings

Winter Storm Watch
Issued: 3:57 PM EDT Mar. 30, 2017 – National Weather Service

... Winter Storm Watch now in effect from Friday afternoon through
Saturday afternoon...

* hazard types... heavy snow possibly mixing with sleet.

* Accumulations... snow accumulation of 6 or more inches possible.

* Timing... the snow will begin Friday afternoon, becoming heavier
Friday evening and overnight before ending Saturday afternoon.

* Impacts... slippery roads and low visibilities. The snow may be
heavy and wet, especially closer to the coast where the
potential for power outages will exist.

* Winds... east 5 to 10 mph with gusts up to 20 mph.

* Temperatures... in the lower 30s.

* Visibilities... one quarter mile or less at times possible.

Precautionary/preparedness actions...

A Winter Storm Watch means there is a potential for significant
snow... sleet... or ice accumulations that may impact travel.
Continue to monitor the latest forecasts.